Al Khuwair — C6VM6 — position and weather

sailwx.info

Track history (hours):
 
Tides and Currents Weather Stations Pressure Air Temp Water Temp Dewpoint Dewpoint Depression Visibility Wind Speed Wind Dir Waves Ship Positions

Al Khuwair

Last reported at 2016-Apr-25 21:33 UTC. Time now 2016-May-27 02:18 UTC.
Position N 01°51' E 102°28'.
Warning: this ship's position is 31 days out of date.

Length 315 m; draft 9.5 m.

Type: Ship (hazmat cat A). MMSI: 311000140.

Date/timePositionNaut miles runAvg speedWind from/ knotsBaromVisibWave heightAir tempDewpointWater temp
2016-Apr-25 21:33N 01°51' E 102°28'1612.8
2016-Apr-25 20:18N 01°45' E 102°42'6511.3
2016-Apr-25 14:33N 01°11' E 103°38'2 1.6
2016-Apr-25 13:32N 01°12' E 103°40'0 0.0
2016-Apr-25 12:32N 01°12' E 103°40'0 0.0
2016-Apr-25 11:20N 01°12' E 103°40'0 0.0
2016-Apr-25 09:32N 01°12' E 103°40'0 0.0
2016-Apr-25 08:26N 01°12' E 103°40'0 0.0
2016-Apr-24 23:31N 01°12' E 103°40'3 3.2
2016-Apr-24 22:33N 01°10' E 103°42'7 6.7
2016-Apr-24 21:33N 01°11' E 103°49'6 6.2
2016-Apr-24 20:32N 01°14' E 103°55'5 5.5
2016-Apr-24 19:33N 01°15' E 103°60'  
Track history (hours):
 
Tides and Currents Weather Stations Pressure Air Temp Water Temp Dewpoint Dewpoint Depression Visibility Wind Speed Wind Dir Waves Ship Positions

Al Khuwair

Last reported at 2016-Apr-25 21:33 UTC. Time now 2016-May-27 02:18 UTC.
Position N 01°51' E 102°28'.
Warning: this ship's position is 31 days out of date.

Length 315 m; draft 9.5 m.

Type: Ship (hazmat cat A). MMSI: 311000140.

Date/timePositionNaut miles runAvg speedWind from/ knotsBaromVisibWave heightAir tempDewpointWater temp
2016-Apr-25 21:33N 01°51' E 102°28'1612.8
2016-Apr-25 20:18N 01°45' E 102°42'6511.3
2016-Apr-25 14:33N 01°11' E 103°38'2 1.6
2016-Apr-25 13:32N 01°12' E 103°40'0 0.0
2016-Apr-25 12:32N 01°12' E 103°40'0 0.0
2016-Apr-25 11:20N 01°12' E 103°40'0 0.0
2016-Apr-25 09:32N 01°12' E 103°40'0 0.0
2016-Apr-25 08:26N 01°12' E 103°40'0 0.0
2016-Apr-24 23:31N 01°12' E 103°40'3 3.2
2016-Apr-24 22:33N 01°10' E 103°42'7 6.7
2016-Apr-24 21:33N 01°11' E 103°49'6 6.2
2016-Apr-24 20:32N 01°14' E 103°55'5 5.5
2016-Apr-24 19:33N 01°15' E 103°60'  

Dump ship's entire track history